Antalya, Turkey

8:04 PM EEST on August 27, 2016 (GMT +0300)
Antalya | | Change Station

Elev 174 ft 36.90 °N, 30.80 °E | Updated 14 minutes ago

Scattered Clouds
Scattered Clouds
82 °F
Feels Like 90 °F
N
4
Wind Variable Wind from SE

Today
High -- | Low -- °F
--% Chance of Precip.
Yesterday
High -- | Low -- °F
Precip. -- in
Pressure 29.86 in
Visibility 6.2 miles
Clouds Scattered Clouds 3000 ft
Heat Index 90 °F
Dew Point 75 °F
Humidity 79%
Rainfall 0.00 in
Snow Depth Not available.
6:24 AM 7:32 PM
Waning Crescent, 23% visible
METAR LTAI 271650Z 14003KT 110V180 9999 SCT030 28/24 Q1011 NOSIG RMK RWY18C 14006KT 110V190 RWY36R 14005KT RWY18L 15005KT 120V180
Pressure 29.86 in
Visibility 6.2 miles
Clouds Scattered Clouds 3000 ft
Heat Index 90 °F
Dew Point 75 °F
Humidity 79%
Rainfall 0.00 in
Snow Depth Not available.
6:24 AM 7:32 PM
Waning Crescent, 23% visible
METAR LTAI 271650Z 14003KT 110V180 9999 SCT030 28/24 Q1011 NOSIG RMK RWY18C 14006KT 110V190 RWY36R 14005KT RWY18L 15005KT 120V180

10-Day Weather Forecast

×

Almanac

Astronomy

Aug. 27, 2016 Rise Set
Actual Time
Civil Twilight
Nautical Twilight
Astronomical Twilight
Moon
Length of Visible Light
Length of Day
Tomorrow will be .
, % of the Moon is Illuminated

Today's Extremes

Country Highs Country Lows

Community

WunderPhotos

Upload Photos

1,935,383 photos uploaded!

WunderBlog® & News

Nearby

Air Quality

  Air Quality AQ Index Pollutant
Not available.

Snow Depth

Station Depth Elevation

Earthquake Activity

City Distance Mag. Time & Date
Minimum magnitude displayed is 2.5.

Coastal Water Temperatures

Place Temperature

Stations

Nearby Weather Stations

Station Location Temp. Windchill Dew Point Humidity Wind Precip. Elev Updated Type